13/04/05 - 18h:31mDenunciar

Dassault Mirage 2000

METAR SBPB 140100Z 00000KT 9999 SCT020 BKN300 25/25 Q1011=

Comentários (0)

Fotos postadas a mais de 15 dias não podem receber comentários.